Time;durP1;ratioP1;P1;durP2;ratioP2;P2;SDS_P1;SDS_P2;PMS_P1;PMS_P2;Temp;Humidity;BMP_temperature;BMP_pressure;BME280_temperature;BME280_humidity;BME280_pressure;Samples;Min_cycle;Max_cycle;Signal;HPM_P1;HPM_P2
2022/08/11 00:07:50;;;;;;;0.68;0.50;;;31.20;39.50;;;;;;20872139;28;20136;-72
2022/08/11 00:17:58;;;;;;;0.97;0.50;;;31.30;39.60;;;;;;20871059;28;20033;-72
2022/08/11 00:27:59;;;;;;;0.98;0.55;;;31.20;39.50;;;;;;20870958;28;20052;-72
2022/08/11 00:37:59;;;;;;;0.47;0.40;;;31.20;39.50;;;;;;20870805;28;20507;-73
2022/08/11 00:48:20;;;;;;;0.68;0.43;;;31.20;39.50;;;;;;20870631;28;20052;-73
2022/08/11 00:58:58;;;;;;;0.70;0.50;;;31.20;39.50;;;;;;20871544;28;20091;-74
2022/08/11 01:09:24;;;;;;;0.93;0.57;;;31.10;39.40;;;;;;21263041;22;20191;-73
2022/08/11 01:19:43;;;;;;;1.08;0.65;;;31.20;39.40;;;;;;20850244;28;20029;-73
2022/08/11 01:30:31;;;;;;;0.70;0.70;;;31.10;39.30;;;;;;20909356;28;20421;-76
2022/08/11 01:40:51;;;;;;;0.40;0.40;;;31.10;39.40;;;;;;20827878;28;20044;-74
2022/08/11 01:51:10;;;;;;;1.25;0.70;;;31.10;39.30;;;;;;20880646;28;20052;-72
2022/08/11 02:01:27;;;;;;;1.17;0.50;;;31.10;39.30;;;;;;20864158;28;20060;-73
2022/08/11 02:11:30;;;;;;;1.05;0.77;;;31.10;39.30;;;;;;20862982;28;20048;-73
2022/08/11 02:42:45;;;;;;;1.23;0.70;;;31.00;39.30;;;;;;20895497;28;20037;-73
2022/08/11 02:53:02;;;;;;;1.42;0.70;;;31.00;39.20;;;;;;20876729;28;20390;-72
2022/08/11 03:03:09;;;;;;;0.80;0.70;;;31.00;39.20;;;;;;20875832;28;20041;-72
2022/08/11 03:23:33;;;;;;;0.50;0.40;;;30.90;39.20;;;;;;20908060;28;20031;-73
2022/08/11 03:34:01;;;;;;;1.55;0.70;;;31.00;39.20;;;;;;20872611;28;20060;-73
2022/08/11 03:44:19;;;;;;;0.82;0.60;;;31.00;39.20;;;;;;20874811;28;20040;-73
2022/08/11 03:54:42;;;;;;;0.80;0.70;;;30.90;39.20;;;;;;20870684;28;20041;-76
2022/08/11 04:05:08;;;;;;;0.90;0.70;;;30.90;39.10;;;;;;20870632;28;20039;-72
2022/08/11 04:16:01;;;;;;;1.38;0.70;;;30.90;39.10;;;;;;20870227;28;20045;-73
2022/08/11 04:26:39;;;;;;;0.90;0.70;;;30.90;39.10;;;;;;20869034;28;20072;-72
2022/08/11 05:09:02;;;;;;;1.92;0.95;;;30.90;38.90;;;;;;20903030;28;20041;-72
2022/08/11 06:00:50;;;;;;;1.50;0.98;;;30.90;38.80;;;;;;20883163;28;20124;-72
2022/08/11 06:10:51;;;;;;;1.80;0.90;;;30.90;38.80;;;;;;20895091;28;20132;-73
2022/08/11 06:20:55;;;;;;;1.42;0.88;;;30.90;38.90;;;;;;20896160;28;20037;-74
2022/08/11 06:30:56;;;;;;;0.90;0.80;;;30.90;38.90;;;;;;20862084;28;20032;-73
2022/08/11 06:41:29;;;;;;;0.80;0.70;;;30.90;38.90;;;;;;20877388;28;20174;-73
2022/08/11 06:51:29;;;;;;;1.85;1.00;;;30.90;38.90;;;;;;20875574;28;20036;-71
2022/08/11 07:01:46;;;;;;;1.02;0.73;;;31.00;39.00;;;;;;20877671;28;20033;-70
2022/08/11 07:28:54;;;;;;;0.52;0.52;;;30.90;39.10;;;;;;20878247;28;20033;-70
2022/08/11 07:33:09;;;;;;;1.00;0.90;;;31.00;39.20;;;;;;20896233;28;20099;-72
2022/08/11 07:43:10;;;;;;;1.02;0.63;;;30.90;39.30;;;;;;20857524;28;20037;-71
2022/08/11 07:53:11;;;;;;;0.93;0.70;;;30.90;39.30;;;;;;20874496;28;20120;-71
2022/08/11 08:23:50;;;;;;;1.50;0.77;;;31.00;39.30;;;;;;20890648;28;20029;-71
2022/08/11 08:33:51;;;;;;;0.90;0.80;;;31.00;39.30;;;;;;20872010;28;20036;-74
2022/08/11 08:43:58;;;;;;;0.88;0.70;;;31.00;39.40;;;;;;20914505;28;20128;-72
2022/08/11 08:54:05;;;;;;;0.80;0.75;;;31.00;39.50;;;;;;20913697;28;20098;-72
2022/08/11 09:04:09;;;;;;;0.57;0.57;;;30.90;39.60;;;;;;20897904;28;20085;-71
2022/08/11 09:14:10;;;;;;;0.73;0.63;;;30.90;39.70;;;;;;20897005;28;20044;-73
2022/08/11 09:34:30;;;;;;;1.33;0.80;;;30.80;39.80;;;;;;20915266;28;20032;-71
2022/08/11 09:44:47;;;;;;;0.85;0.75;;;30.80;39.90;;;;;;20895287;28;20690;-70
2022/08/11 09:54:49;;;;;;;0.82;0.55;;;30.80;39.90;;;;;;20866819;28;20097;-71
2022/08/11 10:04:50;;;;;;;0.50;0.47;;;30.80;39.80;;;;;;20881127;28;20033;-72
2022/08/11 10:35:32;;;;;;;0.98;0.68;;;31.10;39.50;;;;;;20882176;28;20048;-71
2022/08/11 11:06:28;;;;;;;0.70;0.50;;;31.50;39.00;;;;;;20894833;28;20029;-72
2022/08/11 11:26:49;;;;;;;0.65;0.52;;;31.70;38.60;;;;;;20877384;28;20072;-73
2022/08/11 11:36:59;;;;;;;0.68;0.57;;;31.80;38.30;;;;;;20890156;28;20049;-71
2022/08/11 11:47:00;;;;;;;0.60;0.55;;;32.00;38.30;;;;;;20857514;28;20380;-71
2022/08/11 12:01:14;;;;;;;0.40;0.40;;;32.00;38.10;;;;;;20872961;28;20037;-74
2022/08/11 12:17:40;;;;;;;0.43;0.43;;;32.30;38.00;;;;;;20872326;28;20388;-71
2022/08/11 12:27:41;;;;;;;0.50;0.50;;;32.30;37.90;;;;;;20887197;28;20057;-71
2022/08/11 12:37:47;;;;;;;0.68;0.50;;;32.30;37.80;;;;;;20869810;28;20126;-72
2022/08/11 12:58:17;;;;;;;1.35;0.60;;;32.40;37.70;;;;;;20872435;28;20037;-74
2022/08/11 13:08:18;;;;;;;0.55;0.55;;;32.40;37.60;;;;;;20888344;28;20037;-70
2022/08/11 13:18:22;;;;;;;0.95;0.60;;;32.40;37.50;;;;;;20836115;28;20039;-72
2022/08/11 13:28:22;;;;;;;0.65;0.50;;;32.50;37.50;;;;;;20882197;28;20083;-71
2022/08/11 13:38:23;;;;;;;0.60;0.50;;;32.50;37.40;;;;;;20883271;28;20037;-74
2022/08/11 13:48:24;;;;;;;0.43;0.43;;;32.60;37.50;;;;;;20882147;28;20052;-75
2022/08/11 13:58:25;;;;;;;0.45;0.45;;;32.60;37.40;;;;;;20866159;28;20029;-73
2022/08/11 14:08:26;;;;;;;0.57;0.40;;;32.60;37.50;;;;;;20881118;28;20489;-74
2022/08/11 14:18:28;;;;;;;0.40;0.40;;;32.60;37.50;;;;;;20881926;28;20286;-75
2022/08/11 14:28:32;;;;;;;0.37;0.37;;;32.70;38.30;;;;;;20879202;28;20037;-74
2022/08/11 14:38:33;;;;;;;0.50;0.50;;;32.60;37.60;;;;;;20880183;28;20041;-73
2022/08/11 14:48:34;;;;;;;0.38;0.35;;;32.60;37.70;;;;;;20877820;28;20037;-74
2022/08/11 14:58:35;;;;;;;0.20;0.20;;;32.60;37.80;;;;;;20878572;28;20088;-76
2022/08/11 15:08:55;;;;;;;0.50;0.47;;;32.60;38.00;;;;;;20876719;28;20478;-74
2022/08/11 15:18:56;;;;;;;0.40;0.40;;;32.60;38.10;;;;;;20895026;28;20087;-74
2022/08/11 15:39:21;;;;;;;0.70;0.60;;;32.40;38.40;;;;;;20893076;28;20438;-75
2022/08/11 15:49:30;;;;;;;1.45;0.60;;;32.40;38.60;;;;;;20872589;28;20407;-74
2022/08/11 16:09:57;;;;;;;0.85;0.43;;;32.30;39.00;;;;;;20874269;28;20045;-73
2022/08/11 16:19:57;;;;;;;0.30;0.30;;;32.20;39.10;;;;;;20889093;28;20040;-75
2022/08/11 16:29:58;;;;;;;0.50;0.50;;;32.00;39.30;;;;;;20887563;28;20148;-72
2022/08/11 16:39:58;;;;;;;0.20;0.20;;;32.00;39.40;;;;;;20870652;28;20116;-74
2022/08/11 16:49:59;;;;;;;0.30;0.30;;;31.90;39.50;;;;;;20854006;28;20051;-72
2022/08/11 17:00:01;;;;;;;0.30;0.30;;;31.90;39.70;;;;;;20879295;28;20128;-72
2022/08/11 17:20:23;;;;;;;0.70;0.40;;;31.80;40.00;;;;;;20904346;28;20817;-73
2022/08/11 17:35:27;;;;;;;0.40;0.40;;;31.70;40.10;;;;;;20884438;28;20071;-74
2022/08/11 17:48:24;;;;;;;0.77;0.50;;;31.60;40.20;;;;;;20904038;28;20029;-73
2022/08/11 18:01:40;;;;;;;0.40;0.40;;;31.60;40.40;;;;;;20901355;28;20037;-72
